WetterOnline ( https://www.wetteronline.de )

Wetter aktuell Köln

Aktuelles Wetter: Nörvenich (120m)

6-stündlich | Neueste Meldungen
Ortszeit Temperatur Wetter
Sa, 02.03. 19:00 11.8° C bewölkt
Sa, 02.03. 13:00 12.2° C leicht bewölkt
Sa, 02.03. 7:00 7.5° C wolkig
Sa, 02.03. 1:00 6.9° C wolkig
Fr, 01.03. 19:00 9.1° C leicht bewölkt
Fr, 01.03. 13:00 9.4° C wolkig
Fr, 01.03. 7:00 7.2° C bewölkt
Fr, 01.03. 1:00 6.7° C leicht bewölkt
Ortszeit Temperatur Wetter
Sa, 02.03. 19:00 11.8° C bewölkt
Sa, 02.03. 18:00 12.2° C bewölkt
Sa, 02.03. 17:00 12.8° C wolkig
Sa, 02.03. 16:00 12.8° C wolkig
Sa, 02.03. 15:00 13.0° C wolkig
Sa, 02.03. 14:00 12.6° C wolkig
Sa, 02.03. 13:00 12.2° C leicht bewölkt
Ortszeit Relative Feuchte Sichtweite
Sa, 02.03. 19:00 60% 20 km
Sa, 02.03. 13:00 54% 20 km
Sa, 02.03. 7:00 71% 20 km
Sa, 02.03. 1:00 71% 20 km
Fr, 01.03. 19:00 58% 30 km
Fr, 01.03. 13:00 59% 30 km
Fr, 01.03. 7:00 86% 30 km
Fr, 01.03. 1:00 74% 30 km
Ortszeit Relative Feuchte Sichtweite
Sa, 02.03. 19:00 60% 20 km
Sa, 02.03. 18:00 58% 20 km
Sa, 02.03. 17:00 55% 20 km
Sa, 02.03. 16:00 58% 20 km
Sa, 02.03. 15:00 52% 20 km
Sa, 02.03. 14:00 53% 20 km
Sa, 02.03. 13:00 54% 20 km
Ortszeit Niederschlagsmenge Niederschlagsart
Sa, 02.03. 19:00 0.0 l/m2 in 12 Std. -
Sa, 02.03. 13:00 keine Meldung -
Sa, 02.03. 7:00 0.0 l/m2 in 12 Std. -
Sa, 02.03. 1:00 keine Meldung -
Fr, 01.03. 19:00 0.0 l/m2 in 12 Std. -
Fr, 01.03. 13:00 keine Meldung -
Fr, 01.03. 7:00 0.0 l/m2 in 12 Std. -
Fr, 01.03. 1:00 keine Meldung -
Ortszeit Niederschlagsmenge Niederschlagsart
Sa, 02.03. 19:00 keine Meldung -
Sa, 02.03. 18:00 keine Meldung -
Sa, 02.03. 17:00 keine Meldung -
Sa, 02.03. 16:00 keine Meldung -
Sa, 02.03. 15:00 keine Meldung -
Sa, 02.03. 14:00 keine Meldung -
Sa, 02.03. 13:00 keine Meldung -
Ortszeit Stärke Spitze Richtung
km/h Bft. km/h Grad Sektor
Sa, 02.03. 19:00 11 2 - 120° SO
Sa, 02.03. 13:00 18 3 - 140° SO
Sa, 02.03. 7:00 14 3 - 160° S
Sa, 02.03. 1:00 11 2 47 130° SO
Fr, 01.03. 19:00 22 4 - 150° SO
Fr, 01.03. 13:00 18 3 - 170° S
Fr, 01.03. 7:00 22 4 - 260° W
Fr, 01.03. 1:00 11 2 - 130° SO
Ortszeit Stärke Spitze Richtung
km/h Bft. km/h Grad Sektor
Sa, 02.03. 19:00 11 2 - 120° SO
Sa, 02.03. 18:00 14 3 - 120° SO
Sa, 02.03. 17:00 18 3 - 110° O
Sa, 02.03. 16:00 14 3 - 120° SO
Sa, 02.03. 15:00 18 3 - 140° SO
Sa, 02.03. 14:00 22 4 - 140° SO
Sa, 02.03. 13:00 18 3 - 140° SO
Ortszeit Untergrenze Bedeckung Gattung
total tief tief mittel hoch
Sa, 02.03. 19:00 1800 m 7/8 7/8 Sc - -
Sa, 02.03. 13:00 1200 m 5/8 2/8 Cu - Ci
Sa, 02.03. 7:00 2400 m 6/8 6/8 Sc - -
Sa, 02.03. 1:00 2100 m 5/8 5/8 Sc - -
Fr, 01.03. 19:00 2100 m 6/8 2/8 Sc - Ci
Fr, 01.03. 13:00 900 m 7/8 1/8 Sc - Ci
Fr, 01.03. 7:00 480 m 7/8 7/8 Cu - -
Fr, 01.03. 1:00 1500 m 4/8 2/8 Sc Ac -
Ortszeit Bedeckungsgrad in Achtel und Wolkenuntergrenze
Sa, 02.03. 19:00 7(1800m)
Sa, 02.03. 18:00 7(1500m)
Sa, 02.03. 17:00 4(1500m) 7(4200m)
Sa, 02.03. 16:00 3(1800m) 7(4200m)
Sa, 02.03. 15:00 1(1200m) 3(1800m) 7(4200m)
Sa, 02.03. 14:00 1(1200m) 3(1800m) 7(4200m)
Sa, 02.03. 13:00 2(1200m) 5(7800m)
Ortszeit Luftdruck NN (hPa) Tendenz (hPa in 3 Std.)
Sa, 02.03. 19:00 1001 + 0,3
Sa, 02.03. 13:00 1002 - 0,4
Sa, 02.03. 7:00 1002 + 0,2
Sa, 02.03. 1:00 1002 - 0,2
Fr, 01.03. 19:00 1002 - 0,7
Fr, 01.03. 13:00 1005 - 1,0
Fr, 01.03. 7:00 1004 + 0,9
Fr, 01.03. 1:00 1004 - 1,4
Ortszeit Luftdruck NN (hPa) Tendenz (hPa in 3 Std.)
Sa, 02.03. 19:00 1001 + 0,3
Sa, 02.03. 18:00 1000 - 0,7
Sa, 02.03. 17:00 1000 - 1,2
Sa, 02.03. 16:00 1000 - 1,6
Sa, 02.03. 15:00 1001 - 1,1
Sa, 02.03. 14:00 1001 - 1,0
Sa, 02.03. 13:00 1002 - 0,4
Ortszeit Schneehöhe (cm)
Sa, 02.03. 19:00 0
Sa, 02.03. 13:00 -
Sa, 02.03. 7:00 0
Sa, 02.03. 1:00 -
Fr, 01.03. 19:00 0
Fr, 01.03. 13:00 -
Fr, 01.03. 7:00 0
Fr, 01.03. 1:00 -
Ortszeit Schneehöhe (cm)
Sa, 02.03. 19:00 0
Sa, 02.03. 18:00 -
Sa, 02.03. 17:00 -
Sa, 02.03. 16:00 -
Sa, 02.03. 15:00 -
Sa, 02.03. 14:00 -
Sa, 02.03. 13:00 -
Link zu dieser Seite / Seite empfehlen

Das Wetter in ...